createdAt,value
2019-05-30T00:00:36.875Z,4.60
2019-05-30T00:03:05.390Z,4.60
2019-05-30T00:05:33.883Z,4.60
2019-05-30T00:08:02.490Z,4.50
2019-05-30T00:10:30.963Z,4.50
2019-05-30T00:13:00.627Z,4.50
2019-05-30T00:15:29.285Z,4.50
2019-05-30T00:17:58.634Z,4.40
2019-05-30T00:20:27.231Z,4.50
2019-05-30T00:22:56.679Z,4.40
2019-05-30T00:25:25.176Z,4.40
2019-05-30T00:27:53.610Z,4.30
2019-05-30T00:30:24.681Z,4.20
2019-05-30T00:32:52.275Z,4.20
2019-05-30T00:35:20.711Z,4.20
2019-05-30T00:37:49.139Z,4.20
2019-05-30T00:40:17.678Z,4.10
2019-05-30T00:42:46.204Z,4.00
2019-05-30T00:45:21.086Z,4.00
2019-05-30T00:47:45.196Z,4.00
2019-05-30T00:50:14.431Z,3.90
2019-05-30T00:52:42.882Z,3.90
2019-05-30T00:55:11.523Z,3.90
2019-05-30T00:57:40.030Z,3.80
2019-05-30T01:00:09.139Z,3.80
2019-05-30T01:02:37.607Z,3.80
2019-05-30T01:05:08.036Z,3.80
2019-05-30T01:07:36.745Z,3.80
2019-05-30T01:10:07.576Z,3.70
2019-05-30T01:12:36.369Z,3.70
2019-05-30T01:15:07.482Z,3.70
2019-05-30T01:17:36.056Z,3.70
2019-05-30T01:20:07.447Z,3.60
2019-05-30T01:22:36.167Z,3.50
2019-05-30T01:25:07.892Z,3.50
2019-05-30T01:27:36.784Z,3.50
2019-05-30T01:30:07.932Z,3.50
2019-05-30T01:32:36.479Z,3.50
2019-05-30T01:35:08.288Z,3.50
2019-05-30T01:37:36.850Z,3.40
2019-05-30T01:40:08.768Z,3.50
2019-05-30T01:42:37.899Z,3.40
2019-05-30T01:45:08.724Z,3.40
2019-05-30T01:47:37.333Z,3.40
2019-05-30T01:50:11.838Z,3.30
2019-05-30T01:52:40.350Z,3.30
2019-05-30T01:55:10.511Z,3.20
2019-05-30T01:57:39.115Z,3.20
2019-05-30T02:00:20.549Z,3.20
2019-05-30T02:02:43.495Z,3.20
2019-05-30T02:05:12.850Z,3.20
2019-05-30T02:07:41.295Z,3.20
2019-05-30T02:10:10.309Z,3.10
2019-05-30T02:12:38.809Z,3.10
2019-05-30T02:15:10.070Z,3.10
2019-05-30T02:17:38.760Z,3.00
2019-05-30T02:20:08.240Z,3.00
2019-05-30T02:22:36.825Z,3.00
2019-05-30T02:25:08.254Z,3.00
2019-05-30T02:27:36.964Z,2.90
2019-05-30T02:30:09.347Z,2.90
2019-05-30T02:32:37.922Z,2.90
2019-05-30T02:35:07.820Z,2.80
2019-05-30T02:37:36.943Z,2.80
2019-05-30T02:40:09.800Z,2.80
2019-05-30T02:42:37.130Z,2.80
2019-05-30T02:45:07.776Z,2.70
2019-05-30T02:47:36.357Z,2.70
2019-05-30T02:50:11.540Z,2.70
2019-05-30T02:52:39.720Z,2.70
2019-05-30T02:55:10.794Z,2.70
2019-05-30T02:57:38.811Z,2.70
2019-05-30T03:00:12.449Z,2.70
2019-05-30T03:02:38.402Z,2.70
2019-05-30T03:05:10.956Z,2.60
2019-05-30T03:07:37.567Z,2.60
2019-05-30T03:10:12.376Z,2.60
2019-05-30T03:12:39.702Z,2.60
2019-05-30T03:15:12.236Z,2.50
2019-05-30T03:17:39.119Z,2.50
2019-05-30T03:20:14.721Z,2.40
2019-05-30T03:22:39.301Z,2.40
2019-05-30T03:25:11.098Z,2.40
2019-05-30T03:27:38.389Z,2.40
2019-05-30T03:30:16.164Z,2.40
2019-05-30T03:33:04.053Z,2.40
2019-05-30T03:35:18.574Z,2.40
2019-05-30T03:37:38.869Z,2.30
2019-05-30T03:40:08.109Z,2.30
2019-05-30T03:42:36.535Z,2.30
2019-05-30T03:45:11.283Z,2.30
2019-05-30T03:47:41.739Z,2.30
2019-05-30T03:50:17.006Z,2.30
2019-05-30T03:52:43.714Z,2.30
2019-05-30T03:55:14.946Z,2.40
2019-05-30T03:57:52.456Z,2.40
2019-05-30T04:00:26.780Z,2.30
2019-05-30T04:03:11.659Z,2.40
2019-05-30T04:05:43.720Z,2.40
2019-05-30T04:08:16.064Z,2.40
2019-05-30T04:10:47.730Z,2.40
2019-05-30T04:13:22.264Z,2.40
2019-05-30T04:15:50.841Z,2.50
2019-05-30T04:18:19.651Z,2.50
2019-05-30T04:20:48.294Z,2.60
2019-05-30T04:23:17.073Z,2.60
2019-05-30T04:25:46.874Z,2.70
2019-05-30T04:28:16.260Z,2.70
2019-05-30T04:30:45.314Z,2.70
2019-05-30T04:33:26.327Z,2.80
2019-05-30T04:35:43.936Z,2.90
2019-05-30T04:38:12.668Z,2.90
2019-05-30T04:40:41.647Z,3.00
2019-05-30T04:43:11.000Z,3.10
2019-05-30T04:45:39.491Z,3.10
2019-05-30T04:48:09.711Z,3.20
2019-05-30T04:50:38.328Z,3.30
2019-05-30T04:53:06.744Z,3.40
2019-05-30T04:55:35.158Z,3.50
2019-05-30T04:58:03.592Z,3.50
2019-05-30T05:00:33.572Z,3.60
2019-05-30T05:03:02.794Z,3.70
2019-05-30T05:05:31.256Z,3.70
2019-05-30T05:07:59.700Z,3.80
2019-05-30T05:10:28.120Z,3.90
2019-05-30T05:12:56.571Z,4.00
2019-05-30T05:15:24.983Z,4.10
2019-05-30T05:17:53.446Z,4.30
2019-05-30T05:20:23.368Z,4.40
2019-05-30T05:22:52.073Z,4.60
2019-05-30T05:25:21.478Z,4.70
2019-05-30T05:27:50.036Z,4.90
2019-05-30T05:30:20.125Z,5.10
2019-05-30T05:32:48.807Z,5.30
2019-05-30T05:35:18.706Z,5.50
2019-05-30T05:37:47.190Z,5.70
2019-05-30T05:40:16.039Z,5.80
2019-05-30T05:42:44.612Z,5.90
2019-05-30T05:45:13.469Z,6.20
2019-05-30T05:47:41.908Z,6.40
2019-05-30T05:50:10.426Z,6.60
2019-05-30T05:52:39.902Z,6.70
2019-05-30T05:55:08.487Z,6.90
2019-05-30T05:57:36.942Z,7.20
2019-05-30T06:00:09.571Z,7.40
2019-05-30T06:02:38.006Z,7.80
2019-05-30T06:05:07.995Z,8.20
2019-05-30T06:07:36.558Z,8.40
2019-05-30T06:10:06.975Z,8.70
2019-05-30T06:12:35.515Z,8.90
2019-05-30T06:15:07.116Z,9.20
2019-05-30T06:17:35.664Z,9.60
2019-05-30T06:20:06.145Z,9.90
2019-05-30T06:22:34.855Z,10.20
2019-05-30T06:25:04.949Z,10.50
2019-05-30T06:27:33.439Z,10.90
2019-05-30T06:30:01.977Z,11.10
2019-05-30T06:32:30.406Z,11.20
2019-05-30T06:34:58.845Z,11.70
2019-05-30T06:37:27.368Z,12.00
2019-05-30T06:39:57.444Z,12.30
2019-05-30T06:42:25.925Z,12.10
2019-05-30T06:44:54.371Z,12.70
2019-05-30T06:47:22.810Z,13.00
2019-05-30T06:49:51.247Z,13.20
2019-05-30T06:52:20.839Z,13.80
2019-05-30T06:54:49.450Z,14.10
2019-05-30T06:57:17.882Z,14.50
2019-05-30T06:59:46.326Z,14.90
2019-05-30T07:02:14.834Z,15.30
2019-05-30T07:04:51.402Z,15.70
2019-05-30T07:07:13.590Z,15.90
2019-05-30T07:09:42.336Z,16.10
2019-05-30T07:12:12.007Z,16.30
2019-05-30T07:14:42.211Z,16.60
2019-05-30T07:17:10.667Z,17.00
2019-05-30T07:19:39.090Z,17.00
2019-05-30T07:22:07.539Z,17.50
2019-05-30T07:24:35.964Z,17.70
2019-05-30T07:27:04.652Z,17.70
2019-05-30T07:29:34.253Z,17.90
2019-05-30T07:32:02.815Z,17.70
2019-05-30T07:34:34.201Z,17.40
2019-05-30T07:37:02.840Z,17.90
2019-05-30T07:39:35.059Z,18.00
2019-05-30T07:42:06.195Z,18.30
2019-05-30T07:44:32.860Z,18.30
2019-05-30T07:47:01.579Z,18.40
2019-05-30T07:49:30.444Z,18.50
2019-05-30T07:52:00.554Z,18.90
2019-05-30T07:54:29.047Z,19.20
2019-05-30T07:56:57.502Z,19.20
2019-05-30T07:59:26.378Z,19.60
2019-05-30T08:01:54.983Z,19.50
2019-05-30T08:04:23.479Z,19.80
2019-05-30T08:06:51.942Z,19.70
2019-05-30T08:09:20.405Z,20.10
2019-05-30T08:11:48.855Z,20.50
2019-05-30T08:14:17.292Z,20.90
2019-05-30T08:16:45.713Z,21.10
2019-05-30T08:19:14.155Z,21.40
2019-05-30T08:21:42.599Z,20.10
2019-05-30T08:24:11.051Z,19.80
2019-05-30T08:26:39.472Z,20.10
2019-05-30T08:29:07.938Z,20.80
2019-05-30T08:31:36.909Z,20.90
2019-05-30T08:34:05.490Z,21.90
2019-05-30T08:36:34.926Z,22.30
2019-05-30T08:39:05.088Z,22.30
2019-05-30T08:41:33.515Z,22.60
2019-05-30T08:44:01.964Z,20.60
2019-05-30T08:46:32.164Z,20.50
2019-05-30T08:49:01.812Z,20.50
2019-05-30T08:51:30.549Z,19.80
2019-05-30T08:53:59.079Z,19.10
2019-05-30T08:56:28.554Z,18.30
2019-05-30T08:58:57.279Z,17.80
2019-05-30T09:01:27.230Z,17.00
2019-05-30T09:03:56.347Z,17.40
2019-05-30T09:06:24.792Z,17.60
2019-05-30T09:08:53.227Z,17.40
2019-05-30T09:11:21.735Z,18.00
2019-05-30T09:13:50.186Z,19.40
2019-05-30T09:16:18.762Z,20.60
2019-05-30T09:18:47.525Z,20.90
2019-05-30T09:21:17.887Z,20.60
2019-05-30T09:23:47.645Z,20.40
2019-05-30T09:26:16.427Z,20.60
2019-05-30T09:28:46.143Z,20.30
2019-05-30T09:31:14.851Z,20.10
2019-05-30T09:33:44.512Z,20.00
2019-05-30T09:36:14.069Z,19.70
2019-05-30T09:38:43.573Z,19.70
2019-05-30T09:41:12.324Z,19.70
2019-05-30T09:43:42.845Z,19.00
2019-05-30T09:46:11.624Z,19.00
2019-05-30T09:48:41.417Z,19.70
2019-05-30T09:51:10.351Z,19.30
2019-05-30T09:53:38.777Z,19.30
2019-05-30T09:56:07.270Z,20.40
2019-05-30T09:58:35.690Z,21.10
2019-05-30T10:01:04.610Z,21.20
2019-05-30T10:03:33.023Z,21.20
2019-05-30T10:06:01.530Z,22.00
2019-05-30T10:08:29.956Z,22.60
2019-05-30T10:10:58.407Z,23.40
2019-05-30T10:13:26.888Z,23.20
2019-05-30T10:15:56.635Z,23.20
2019-05-30T10:18:25.287Z,22.40
2019-05-30T10:20:53.800Z,22.30
2019-05-30T10:23:22.435Z,21.40
2019-05-30T10:25:51.235Z,20.80
2019-05-30T10:28:19.846Z,20.30
2019-05-30T10:30:53.868Z,19.80
2019-05-30T10:33:19.217Z,19.10
2019-05-30T10:35:49.025Z,19.10
2019-05-30T10:38:19.986Z,18.80
2019-05-30T10:40:48.737Z,19.40
2019-05-30T10:43:18.263Z,20.60
2019-05-30T10:45:49.495Z,20.20
2019-05-30T10:48:20.746Z,20.60
2019-05-30T10:50:48.602Z,21.30
2019-05-30T10:53:17.290Z,21.40
2019-05-30T10:55:47.070Z,22.20
2019-05-30T10:58:16.297Z,22.50
2019-05-30T11:00:48.997Z,23.20
2019-05-30T11:03:18.494Z,21.90
2019-05-30T11:06:06.792Z,20.90
2019-05-30T11:08:37.555Z,20.80
2019-05-30T11:11:05.963Z,20.30
2019-05-30T11:13:34.480Z,20.30
2019-05-30T11:16:02.904Z,20.30
2019-05-30T11:18:31.453Z,20.10
2019-05-30T11:21:00.891Z,19.30
2019-05-30T11:23:29.339Z,19.20
2019-05-30T11:25:58.864Z,19.00
2019-05-30T11:28:27.728Z,19.40
2019-05-30T11:30:56.864Z,19.60
2019-05-30T11:33:25.375Z,20.00
2019-05-30T11:35:55.045Z,19.80
2019-05-30T11:38:23.740Z,19.50
2019-05-30T11:40:53.280Z,20.20
2019-05-30T11:43:21.996Z,21.00
2019-05-30T11:45:51.686Z,22.30
2019-05-30T11:48:20.223Z,22.50
2019-05-30T11:50:50.413Z,22.60
2019-05-30T11:53:19.011Z,22.30
2019-05-30T11:55:47.507Z,21.90
2019-05-30T11:58:19.349Z,21.10
2019-05-30T12:00:46.258Z,20.60
2019-05-30T12:03:16.310Z,20.00
2019-05-30T12:05:44.759Z,19.50
2019-05-30T12:08:13.183Z,19.60
2019-05-30T12:10:41.621Z,20.00
2019-05-30T12:13:10.063Z,20.60
2019-05-30T12:15:38.512Z,20.40
2019-05-30T12:18:06.932Z,21.30
2019-05-30T12:20:35.372Z,21.90
2019-05-30T12:23:03.839Z,21.60
2019-05-30T12:25:32.405Z,21.50
2019-05-30T12:28:03.700Z,21.40
2019-05-30T12:30:31.211Z,21.20
2019-05-30T12:33:00.872Z,21.30
2019-05-30T12:35:29.506Z,21.20
2019-05-30T12:38:02.488Z,20.90
2019-05-30T12:40:28.599Z,20.90
2019-05-30T12:42:59.194Z,20.70
2019-05-30T12:45:27.275Z,20.80
2019-05-30T12:47:55.709Z,21.00
2019-05-30T12:50:24.464Z,21.10
2019-05-30T12:52:53.450Z,21.20
2019-05-30T12:55:22.318Z,20.90
2019-05-30T12:57:50.931Z,21.20
2019-05-30T13:00:25.150Z,21.90
2019-05-30T13:02:54.653Z,21.40
2019-05-30T13:05:23.303Z,20.70
2019-05-30T13:07:51.827Z,20.70
2019-05-30T13:10:21.963Z,20.70
2019-05-30T13:12:50.394Z,21.00
2019-05-30T13:15:19.251Z,21.00
2019-05-30T13:17:47.697Z,21.20
2019-05-30T13:20:16.868Z,21.10
2019-05-30T13:22:45.313Z,21.30
2019-05-30T13:25:16.497Z,21.20
2019-05-30T13:27:45.007Z,22.20
2019-05-30T13:30:15.179Z,22.30
2019-05-30T13:32:43.606Z,22.00
2019-05-30T13:35:12.767Z,21.50
2019-05-30T13:37:41.371Z,21.50
2019-05-30T13:40:24.207Z,22.10
2019-05-30T13:42:42.469Z,21.50
2019-05-30T13:45:11.220Z,21.20
2019-05-30T13:47:39.987Z,21.10
2019-05-30T13:50:13.575Z,20.70
2019-05-30T13:52:41.346Z,20.10
2019-05-30T13:55:10.773Z,19.70
2019-05-30T13:57:39.263Z,19.90
2019-05-30T14:00:10.661Z,19.60
2019-05-30T14:02:39.530Z,19.80
2019-05-30T14:05:10.328Z,19.80
2019-05-30T14:07:39.172Z,20.70
2019-05-30T14:10:08.868Z,21.50
2019-05-30T14:12:37.369Z,22.00
2019-05-30T14:15:13.150Z,22.60
2019-05-30T14:17:39.604Z,23.30
2019-05-30T14:20:09.085Z,23.20
2019-05-30T14:22:37.647Z,23.10
2019-05-30T14:25:07.569Z,23.20
2019-05-30T14:27:36.135Z,23.40
2019-05-30T14:30:09.012Z,22.60
2019-05-30T14:32:37.645Z,22.80
2019-05-30T14:35:11.725Z,22.50
2019-05-30T14:37:39.724Z,22.10
2019-05-30T14:40:11.100Z,22.20
2019-05-30T14:42:40.008Z,22.10
2019-05-30T14:45:10.564Z,22.20
2019-05-30T14:47:39.426Z,22.40
2019-05-30T14:50:11.022Z,21.80
2019-05-30T14:52:39.704Z,22.10
2019-05-30T14:55:11.159Z,22.30
2019-05-30T14:57:39.759Z,21.80
2019-05-30T15:00:11.376Z,21.30
2019-05-30T15:02:41.496Z,21.60
2019-05-30T15:05:11.374Z,21.90
2019-05-30T15:07:39.982Z,21.20
2019-05-30T15:10:10.721Z,21.30
2019-05-30T15:12:41.552Z,21.30
2019-05-30T15:15:13.209Z,20.90
2019-05-30T15:17:40.829Z,20.50
2019-05-30T15:20:11.710Z,20.10
2019-05-30T15:22:40.361Z,20.00
2019-05-30T15:25:09.970Z,19.90
2019-05-30T15:27:38.620Z,20.00
2019-05-30T15:30:08.602Z,20.30
2019-05-30T15:32:37.251Z,20.40
2019-05-30T15:35:06.805Z,20.70
2019-05-30T15:37:35.414Z,20.80
2019-05-30T15:40:08.983Z,20.60
2019-05-30T15:42:37.678Z,20.70
2019-05-30T15:45:08.065Z,20.50
2019-05-30T15:47:37.014Z,20.30
2019-05-30T15:50:06.163Z,20.10
2019-05-30T15:52:34.670Z,19.80
2019-05-30T15:55:03.761Z,19.40
2019-05-30T15:57:33.094Z,19.30
2019-05-30T16:00:01.601Z,19.20
2019-05-30T16:02:30.122Z,19.30
2019-05-30T16:04:58.548Z,19.40
2019-05-30T16:07:26.998Z,19.60
2019-05-30T16:09:55.435Z,19.70
2019-05-30T16:12:23.990Z,19.60
2019-05-30T16:14:52.467Z,19.50
2019-05-30T16:17:21.765Z,19.30
2019-05-30T16:19:50.344Z,19.30
2019-05-30T16:22:18.779Z,19.10
2019-05-30T16:24:47.193Z,18.90
2019-05-30T16:27:15.805Z,18.80
2019-05-30T16:29:44.332Z,18.70
2019-05-30T16:32:13.808Z,18.70
2019-05-30T16:34:42.367Z,18.70
2019-05-30T16:37:10.815Z,18.90
2019-05-30T16:39:39.407Z,18.90
2019-05-30T16:42:07.869Z,18.90
2019-05-30T16:44:36.303Z,18.80
2019-05-30T16:47:04.837Z,18.70
2019-05-30T16:49:34.526Z,18.60
2019-05-30T16:52:02.982Z,18.60
2019-05-30T16:54:31.512Z,18.70
2019-05-30T16:56:59.973Z,18.60
2019-05-30T16:59:28.432Z,18.50
2019-05-30T17:01:58.485Z,18.40
2019-05-30T17:04:28.774Z,18.30
2019-05-30T17:06:57.200Z,18.20
2019-05-30T17:09:25.643Z,18.10
2019-05-30T17:11:54.058Z,18.00
2019-05-30T17:14:23.671Z,18.00
2019-05-30T17:16:52.512Z,18.00
2019-05-30T17:19:22.292Z,17.90
2019-05-30T17:21:50.937Z,17.80
2019-05-30T17:24:19.366Z,17.80
2019-05-30T17:26:51.654Z,17.70
2019-05-30T17:29:19.434Z,17.70
2019-05-30T17:31:47.976Z,17.70
2019-05-30T17:34:17.701Z,17.70
2019-05-30T17:36:46.326Z,17.70
2019-05-30T17:39:14.766Z,17.60
2019-05-30T17:41:43.358Z,17.50
2019-05-30T17:44:11.819Z,17.40
2019-05-30T17:46:40.326Z,17.30
2019-05-30T17:49:09.231Z,17.20
2019-05-30T17:51:37.893Z,17.20
2019-05-30T17:54:07.505Z,17.00
2019-05-30T17:56:35.931Z,17.00
2019-05-30T17:59:04.417Z,17.00
2019-05-30T18:01:32.869Z,16.90
2019-05-30T18:04:01.347Z,16.90
2019-05-30T18:06:30.806Z,16.90
2019-05-30T18:08:59.382Z,16.90
2019-05-30T18:11:28.952Z,16.90
2019-05-30T18:13:57.604Z,16.90
2019-05-30T18:16:27.158Z,16.90
2019-05-30T18:18:55.959Z,16.80
2019-05-30T18:21:25.382Z,16.90
2019-05-30T18:23:53.920Z,16.90
2019-05-30T18:26:23.401Z,16.80
2019-05-30T18:28:52.100Z,16.80
2019-05-30T18:31:21.802Z,16.80
2019-05-30T18:33:50.448Z,16.70
2019-05-30T18:36:18.994Z,16.70
2019-05-30T18:38:47.506Z,16.70
2019-05-30T18:41:16.704Z,16.60
2019-05-30T18:43:45.405Z,16.60
2019-05-30T18:46:13.932Z,16.60
2019-05-30T18:48:42.439Z,16.50
2019-05-30T18:51:11.075Z,16.50
2019-05-30T18:53:39.590Z,16.40
2019-05-30T18:56:08.234Z,16.40
2019-05-30T18:58:37.532Z,16.40
2019-05-30T19:01:06.591Z,16.30
2019-05-30T19:03:35.033Z,16.30
2019-05-30T19:06:03.557Z,16.20
2019-05-30T19:08:32.096Z,16.10
2019-05-30T19:11:00.535Z,16.10
2019-05-30T19:13:29.031Z,16.00
2019-05-30T19:15:57.558Z,15.90
2019-05-30T19:18:27.218Z,15.80
2019-05-30T19:20:55.818Z,15.70
2019-05-30T19:23:24.278Z,15.70
2019-05-30T19:25:52.691Z,15.60
2019-05-30T19:28:21.315Z,15.50
2019-05-30T19:30:49.754Z,15.50
2019-05-30T19:33:20.819Z,15.40
2019-05-30T19:35:49.657Z,15.30
2019-05-30T19:38:19.704Z,15.30
2019-05-30T19:40:48.195Z,15.20
2019-05-30T19:43:16.645Z,15.20
2019-05-30T19:45:45.138Z,15.20
2019-05-30T19:48:13.631Z,15.10
2019-05-30T19:50:42.626Z,15.10
2019-05-30T19:53:11.215Z,15.10
2019-05-30T19:55:39.654Z,15.10
2019-05-30T19:58:08.125Z,15.10
2019-05-30T20:00:56.740Z,15.00
2019-05-30T20:03:06.866Z,14.90
2019-05-30T20:05:36.551Z,14.90
2019-05-30T20:08:05.240Z,14.90
2019-05-30T20:10:34.977Z,14.90
2019-05-30T20:13:03.563Z,14.90
2019-05-30T20:15:33.213Z,14.80
2019-05-30T20:18:01.815Z,14.80
2019-05-30T20:20:47.767Z,14.80
2019-05-30T20:23:00.399Z,14.80
2019-05-30T20:25:28.914Z,14.70
2019-05-30T20:27:57.339Z,14.70
2019-05-30T20:30:25.917Z,14.70
2019-05-30T20:32:54.361Z,14.60
2019-05-30T20:35:22.929Z,14.50
2019-05-30T20:37:51.390Z,14.50
2019-05-30T20:40:20.146Z,14.50
2019-05-30T20:42:48.579Z,14.50
2019-05-30T20:45:18.172Z,14.40
2019-05-30T20:47:47.501Z,14.50
2019-05-30T20:50:18.067Z,14.40
2019-05-30T20:52:47.515Z,14.40
2019-05-30T20:55:16.641Z,14.30
2019-05-30T20:57:45.221Z,14.30
2019-05-30T21:00:16.011Z,14.30
2019-05-30T21:02:44.475Z,14.20
2019-05-30T21:05:13.139Z,14.20
2019-05-30T21:07:44.321Z,14.20
2019-05-30T21:10:14.005Z,14.20
2019-05-30T21:12:46.898Z,14.10
2019-05-30T21:15:15.190Z,14.10
2019-05-30T21:17:48.246Z,14.10
2019-05-30T21:20:16.942Z,14.10
2019-05-30T21:22:46.504Z,14.00
2019-05-30T21:25:15.529Z,14.00
2019-05-30T21:27:45.188Z,14.00
2019-05-30T21:30:14.384Z,14.00
2019-05-30T21:32:44.154Z,13.90
2019-05-30T21:35:13.334Z,13.80
2019-05-30T21:37:41.929Z,13.90
2019-05-30T21:40:10.790Z,13.90
2019-05-30T21:42:55.689Z,13.90
2019-05-30T21:45:09.846Z,13.90
2019-05-30T21:47:38.674Z,13.80
2019-05-30T21:50:07.897Z,13.80
2019-05-30T21:52:36.527Z,13.80
2019-05-30T21:55:09.052Z,13.70
2019-05-30T21:57:37.508Z,13.70
2019-05-30T22:00:14.958Z,13.60
2019-05-30T22:02:46.670Z,13.70
2019-05-30T22:05:15.530Z,13.70
2019-05-30T22:07:45.054Z,13.60
2019-05-30T22:10:13.816Z,13.70
2019-05-30T22:12:43.374Z,13.60
2019-05-30T22:15:12.185Z,13.60
2019-05-30T22:17:41.652Z,13.60
2019-05-30T22:20:10.376Z,13.60
2019-05-30T22:22:38.826Z,13.60
2019-05-30T22:25:07.631Z,13.50
2019-05-30T22:27:36.135Z,13.50
2019-05-30T22:30:05.828Z,13.50
2019-05-30T22:32:34.254Z,13.40
2019-05-30T22:35:02.790Z,13.40
2019-05-30T22:37:31.224Z,13.40
2019-05-30T22:39:59.775Z,13.40
2019-05-30T22:42:28.366Z,13.30
2019-05-30T22:44:56.807Z,13.30
2019-05-30T22:47:25.238Z,13.30
2019-05-30T22:49:53.703Z,13.30
2019-05-30T22:52:22.178Z,13.30
2019-05-30T22:54:51.213Z,13.40
2019-05-30T22:57:19.854Z,13.30
2019-05-30T22:59:48.834Z,13.30
2019-05-30T23:02:17.382Z,13.30
2019-05-30T23:04:46.036Z,13.30
2019-05-30T23:07:14.605Z,13.30
2019-05-30T23:09:43.210Z,13.30
2019-05-30T23:12:11.632Z,13.30
2019-05-30T23:14:40.074Z,13.30
2019-05-30T23:17:08.505Z,13.30
2019-05-30T23:19:37.023Z,13.30
2019-05-30T23:22:05.603Z,13.20
2019-05-30T23:24:34.122Z,13.20
2019-05-30T23:27:02.611Z,13.10
2019-05-30T23:29:31.056Z,13.20
2019-05-30T23:31:59.470Z,13.10
2019-05-30T23:34:27.927Z,13.10
2019-05-30T23:36:56.705Z,13.10
2019-05-30T23:39:25.272Z,13.00
2019-05-30T23:41:55.090Z,13.00
2019-05-30T23:44:23.827Z,13.00
2019-05-30T23:46:53.356Z,12.90
2019-05-30T23:49:21.934Z,13.00
2019-05-30T23:51:50.378Z,12.90
2019-05-30T23:54:18.802Z,12.90
2019-05-30T23:56:47.233Z,12.90
2019-05-30T23:59:15.660Z,12.90
